createdAt,value
2022-12-22T00:00:58.335Z,6.75
2022-12-22T00:05:59.890Z,6.18
2022-12-22T00:11:02.049Z,6.28
2022-12-22T00:16:03.942Z,7.20
2022-12-22T00:21:05.478Z,6.85
2022-12-22T00:26:08.564Z,6.28
2022-12-22T00:31:10.165Z,6.20
2022-12-22T00:36:13.280Z,5.25
2022-12-22T00:41:14.772Z,7.63
2022-12-22T00:46:18.525Z,7.18
2022-12-22T00:51:20.147Z,6.28
2022-12-22T00:56:21.592Z,6.53
2022-12-22T01:01:23.615Z,6.05
2022-12-22T01:06:30.240Z,4.97
2022-12-22T01:11:33.061Z,4.97
2022-12-22T01:16:36.061Z,7.25
2022-12-22T01:21:37.587Z,4.35
2022-12-22T01:26:39.920Z,5.97
2022-12-22T01:31:42.201Z,4.82
2022-12-22T01:36:43.672Z,5.35
2022-12-22T01:41:47.117Z,4.28
2022-12-22T01:46:50.152Z,4.38
2022-12-22T01:51:51.779Z,4.60
2022-12-22T01:56:53.690Z,4.63
2022-12-22T02:01:55.457Z,5.65
2022-12-22T02:07:04.575Z,4.55
2022-12-22T02:12:18.832Z,4.55
2022-12-22T02:17:42.160Z,3.90
2022-12-22T02:22:51.291Z,4.68
2022-12-22T02:27:55.001Z,5.70
2022-12-22T02:32:56.752Z,4.63
2022-12-22T02:38:02.873Z,3.88
2022-12-22T02:43:28.165Z,3.50
2022-12-22T02:48:47.072Z,3.53
2022-12-22T02:53:49.864Z,4.25
2022-12-22T02:58:51.724Z,3.55
2022-12-22T03:03:56.151Z,5.22
2022-12-22T03:14:15.109Z,3.95
2022-12-22T03:19:19.199Z,2.15
2022-12-22T03:24:20.824Z,3.63
2022-12-22T03:29:25.012Z,3.90
2022-12-22T03:34:27.089Z,2.78
2022-12-22T03:39:29.613Z,3.22
2022-12-22T03:44:31.159Z,2.20
2022-12-22T03:49:38.950Z,1.73
2022-12-22T03:54:41.744Z,2.63
2022-12-22T04:05:52.494Z,5.38
2022-12-22T04:11:12.937Z,3.40
2022-12-22T04:16:15.598Z,3.95
2022-12-22T04:21:19.045Z,3.05
2022-12-22T04:26:26.261Z,4.70
2022-12-22T04:31:28.294Z,4.13
2022-12-22T04:36:30.732Z,5.10
2022-12-22T04:41:32.871Z,4.13
2022-12-22T04:46:34.820Z,3.15
2022-12-22T04:51:36.852Z,3.60
2022-12-22T04:56:38.609Z,3.80
2022-12-22T05:01:40.550Z,3.38
2022-12-22T05:06:42.802Z,3.88
2022-12-22T05:11:44.830Z,3.65
2022-12-22T05:16:46.657Z,3.78
2022-12-22T05:21:48.292Z,5.18
2022-12-22T05:26:49.990Z,4.65
2022-12-22T05:31:55.013Z,6.63
2022-12-22T05:36:56.620Z,3.80
2022-12-22T05:42:01.681Z,4.70
2022-12-22T05:47:03.217Z,4.68
2022-12-22T05:52:05.064Z,4.68
2022-12-22T05:57:06.549Z,4.05
2022-12-22T06:02:08.279Z,4.32
2022-12-22T06:07:10.099Z,4.72
2022-12-22T06:12:11.799Z,7.22
2022-12-22T06:17:13.351Z,5.15
2022-12-22T06:22:15.121Z,5.85
2022-12-22T06:27:22.172Z,4.93
2022-12-22T06:32:23.933Z,6.40
2022-12-22T06:37:25.622Z,5.25
2022-12-22T06:42:27.198Z,4.88
2022-12-22T06:47:31.991Z,5.60
2022-12-22T06:52:33.641Z,8.65
2022-12-22T06:57:35.240Z,7.10
2022-12-22T07:02:36.949Z,7.10
2022-12-22T07:07:38.689Z,9.38
2022-12-22T07:12:40.233Z,7.82
2022-12-22T07:17:41.871Z,8.52
2022-12-22T07:22:43.567Z,8.43
2022-12-22T07:27:47.696Z,8.27
2022-12-22T07:33:59.527Z,11.07
2022-12-22T07:55:56.889Z,10.95
2022-12-22T08:07:38.309Z,10.23
2022-12-22T08:12:46.064Z,14.27
2022-12-22T08:23:46.831Z,11.90
2022-12-22T08:41:38.092Z,12.55
2022-12-22T08:46:46.342Z,12.02
2022-12-22T08:52:00.174Z,14.10
2022-12-22T08:57:15.607Z,14.90
2022-12-22T09:03:17.333Z,18.63
2022-12-22T09:07:54.558Z,17.77
2022-12-22T09:12:56.004Z,18.08
2022-12-22T09:17:57.641Z,19.65
2022-12-22T09:23:00.171Z,20.33
2022-12-22T09:28:01.578Z,21.42
2022-12-22T09:33:03.059Z,22.73
2022-12-22T09:38:04.550Z,22.63
2022-12-22T09:43:07.240Z,21.83
2022-12-22T09:48:13.460Z,21.92
2022-12-22T09:53:23.471Z,21.83
2022-12-22T09:58:31.666Z,20.67
2022-12-22T10:03:56.539Z,21.77
2022-12-22T10:09:46.260Z,20.90
2022-12-22T10:14:43.495Z,21.00
2022-12-22T10:19:48.841Z,19.25
2022-12-22T10:24:50.856Z,21.80
2022-12-22T10:29:53.543Z,19.75
2022-12-22T10:35:02.469Z,20.80
2022-12-22T10:40:23.574Z,18.25
2022-12-22T10:45:27.908Z,18.63
2022-12-22T10:50:30.237Z,19.00
2022-12-22T10:55:31.825Z,18.38
2022-12-22T11:00:33.561Z,19.25
2022-12-22T11:05:35.010Z,23.13
2022-12-22T11:11:01.155Z,22.52
2022-12-22T11:16:11.693Z,20.67
2022-12-22T11:21:52.420Z,18.13
2022-12-22T11:27:20.396Z,16.88
2022-12-22T11:32:38.163Z,13.23
2022-12-22T11:37:42.599Z,13.25
2022-12-22T11:42:57.217Z,12.70
2022-12-22T11:48:07.750Z,12.90
2022-12-22T11:53:27.379Z,14.68
2022-12-22T11:58:47.506Z,14.77
2022-12-22T12:09:27.474Z,18.20
2022-12-22T12:14:40.323Z,15.88
2022-12-22T12:26:40.602Z,13.02
2022-12-22T12:32:11.684Z,17.65
2022-12-22T12:37:26.565Z,13.60
2022-12-22T12:43:03.968Z,18.02
2022-12-22T12:48:22.255Z,14.23
2022-12-22T12:53:31.087Z,10.68
2022-12-22T12:58:45.326Z,11.97
2022-12-22T13:04:03.071Z,10.98
2022-12-22T13:09:39.972Z,10.13
2022-12-22T13:14:56.057Z,9.80
2022-12-22T13:19:57.850Z,11.73
2022-12-22T13:25:02.085Z,12.02
2022-12-22T13:30:11.227Z,9.27
2022-12-22T13:35:33.333Z,10.90
2022-12-22T13:40:45.264Z,9.88
2022-12-22T13:45:50.188Z,11.57
2022-12-22T13:50:57.168Z,10.25
2022-12-22T13:55:59.141Z,12.40
2022-12-22T14:01:08.046Z,16.60
2022-12-22T14:06:29.055Z,14.50
2022-12-22T14:11:31.858Z,9.98
2022-12-22T14:16:34.184Z,16.13
2022-12-22T14:21:36.262Z,12.77
2022-12-22T14:26:38.218Z,9.93
2022-12-22T14:32:00.652Z,15.05
2022-12-22T14:37:02.656Z,17.83
2022-12-22T14:42:11.692Z,11.55
2022-12-22T14:47:15.632Z,14.93
2022-12-22T14:52:33.473Z,15.18
2022-12-22T14:57:42.607Z,10.25
2022-12-22T15:02:53.235Z,12.10
2022-12-22T15:08:06.708Z,8.82
2022-12-22T15:18:27.379Z,9.45
2022-12-22T15:23:32.036Z,8.93
2022-12-22T15:28:33.488Z,12.02
2022-12-22T15:33:34.935Z,11.43
2022-12-22T15:38:38.982Z,14.55
2022-12-22T15:43:58.368Z,14.27
2022-12-22T15:49:00.617Z,12.73
2022-12-22T15:54:03.835Z,12.77
2022-12-22T15:59:05.707Z,11.70
2022-12-22T16:04:07.265Z,14.02
2022-12-22T16:09:18.060Z,12.50
2022-12-22T16:14:21.069Z,15.13
2022-12-22T16:19:22.460Z,19.75
2022-12-22T16:24:30.866Z,13.52
2022-12-22T16:29:32.357Z,13.73
2022-12-22T16:34:33.771Z,22.13
2022-12-22T16:39:35.188Z,19.98
2022-12-22T16:49:55.658Z,12.05
2022-12-22T16:54:57.113Z,12.80
2022-12-22T16:59:58.982Z,10.10
2022-12-22T17:05:02.239Z,12.20
2022-12-22T17:10:03.861Z,12.55
2022-12-22T17:15:05.540Z,11.57
2022-12-22T17:20:07.666Z,10.40
2022-12-22T17:25:17.605Z,11.15
2022-12-22T17:30:22.491Z,11.00
2022-12-22T17:35:25.978Z,11.55
2022-12-22T17:40:29.273Z,15.95
2022-12-22T17:45:30.749Z,12.75
2022-12-22T17:50:32.187Z,11.60
2022-12-22T18:00:54.913Z,13.77
2022-12-22T18:05:56.460Z,13.13
2022-12-22T18:11:01.976Z,13.38
2022-12-22T18:16:03.493Z,12.82
2022-12-22T18:21:07.410Z,10.55
2022-12-22T18:26:18.156Z,8.07
2022-12-22T18:36:33.937Z,7.07
2022-12-22T18:41:35.536Z,6.35
2022-12-22T18:46:36.902Z,6.00
2022-12-22T18:51:38.623Z,7.68
2022-12-22T18:56:40.031Z,7.55
2022-12-22T19:01:41.711Z,7.25
2022-12-22T19:06:46.329Z,7.70
2022-12-22T19:11:47.758Z,7.32
2022-12-22T19:16:49.426Z,9.07
2022-12-22T19:21:50.937Z,10.68
2022-12-22T19:26:52.400Z,10.35
2022-12-22T19:31:53.868Z,9.70
2022-12-22T19:36:55.371Z,10.00
2022-12-22T19:41:56.826Z,7.93
2022-12-22T19:46:59.630Z,12.88
2022-12-22T19:52:01.038Z,12.27
2022-12-22T19:57:03.521Z,12.45
2022-12-22T20:02:27.069Z,11.18
2022-12-22T20:07:30.212Z,8.85
2022-12-22T20:12:37.407Z,11.13
2022-12-22T20:17:38.817Z,11.18
2022-12-22T20:22:44.572Z,11.07
2022-12-22T20:27:45.944Z,12.20
2022-12-22T20:32:47.696Z,10.15
2022-12-22T20:37:50.148Z,11.57
2022-12-22T20:42:51.666Z,8.82
2022-12-22T20:47:53.700Z,15.93
2022-12-22T20:52:56.905Z,11.98
2022-12-22T20:57:58.306Z,10.82
2022-12-22T21:03:00.011Z,10.15
2022-12-22T21:08:01.721Z,11.40
2022-12-22T21:13:03.078Z,10.98
2022-12-22T21:18:06.945Z,12.07
2022-12-22T21:23:08.544Z,21.15
2022-12-22T21:28:21.105Z,18.75
2022-12-22T21:33:22.583Z,12.98
2022-12-22T21:38:27.511Z,8.32
2022-12-22T21:43:28.950Z,21.35
2022-12-22T21:48:30.340Z,17.23
2022-12-22T21:53:31.726Z,16.40
2022-12-22T21:58:33.161Z,12.07
2022-12-22T22:03:34.570Z,15.48
2022-12-22T22:08:35.945Z,10.75
2022-12-22T22:13:37.284Z,14.25
2022-12-22T22:18:40.128Z,12.68
2022-12-22T22:23:42.183Z,14.65
2022-12-22T22:28:43.732Z,12.40
2022-12-22T22:33:48.964Z,17.63
2022-12-22T22:38:50.896Z,20.83
2022-12-22T22:43:55.256Z,13.98
2022-12-22T22:48:56.583Z,15.32
2022-12-22T22:53:58.251Z,12.77
2022-12-22T22:59:00.099Z,11.90
2022-12-22T23:04:01.888Z,16.73
2022-12-22T23:09:04.029Z,13.43
2022-12-22T23:14:19.679Z,13.32
2022-12-22T23:19:21.209Z,16.42
2022-12-22T23:24:23.033Z,14.07
2022-12-22T23:29:24.783Z,11.70
2022-12-22T23:34:29.314Z,13.65
2022-12-22T23:39:30.756Z,13.30
2022-12-22T23:44:32.105Z,15.02
2022-12-22T23:49:33.649Z,20.10
2022-12-22T23:54:35.050Z,13.80
2022-12-22T23:59:36.494Z,13.15
